createdAt,value
2023-03-27T00:00:16.631Z,99531.91
2023-03-27T00:02:47.065Z,99551.97
2023-03-27T00:05:14.980Z,99563.34
2023-03-27T00:07:42.732Z,99589.53
2023-03-27T00:10:13.054Z,99593.88
2023-03-27T00:12:40.931Z,99606.22
2023-03-27T00:15:09.800Z,99617.75
2023-03-27T00:17:37.637Z,99611.88
2023-03-27T00:20:06.711Z,99624.38
2023-03-27T00:22:34.517Z,99634.09
2023-03-27T00:25:02.332Z,99658.59
2023-03-27T00:27:31.544Z,99645.63
2023-03-27T00:29:59.493Z,99650.28
2023-03-27T00:32:27.434Z,99664.44
2023-03-27T00:34:55.209Z,99686.38
2023-03-27T00:37:23.587Z,99691.00
2023-03-27T00:39:51.339Z,99699.06
2023-03-27T00:42:22.888Z,99710.63
2023-03-27T00:44:53.149Z,99738.69
2023-03-27T00:47:28.873Z,99754.50
2023-03-27T00:49:56.880Z,99769.47
2023-03-27T00:52:29.556Z,99777.44
2023-03-27T00:54:59.659Z,99804.53
2023-03-27T00:57:27.831Z,99817.66
2023-03-27T00:59:59.906Z,99817.75
2023-03-27T01:02:28.627Z,99814.31
2023-03-27T01:04:57.927Z,99825.69
2023-03-27T01:07:25.943Z,99819.63
2023-03-27T01:09:53.803Z,99826.84
2023-03-27T01:12:35.365Z,99836.66
2023-03-27T01:15:16.386Z,99846.38
2023-03-27T01:17:59.852Z,99867.41
2023-03-27T01:20:59.660Z,99877.94
2023-03-27T01:24:12.738Z,99887.53
2023-03-27T01:26:57.956Z,99903.91
2023-03-27T01:29:37.042Z,99915.03
2023-03-27T01:32:45.954Z,99901.00
2023-03-27T01:35:48.020Z,99897.38
2023-03-27T01:39:07.338Z,99883.47
2023-03-27T01:41:43.060Z,99867.28
2023-03-27T01:44:18.204Z,99857.06
2023-03-27T01:46:52.235Z,99870.41
2023-03-27T01:49:24.923Z,99889.94
2023-03-27T01:51:57.248Z,99899.84
2023-03-27T01:54:29.188Z,99930.56
2023-03-27T01:57:04.713Z,99967.41
2023-03-27T01:59:37.665Z,99982.34
2023-03-27T02:02:12.862Z,99984.25
2023-03-27T02:04:46.990Z,99995.81
2023-03-27T02:07:23.144Z,100013.41
2023-03-27T02:09:54.250Z,100012.63
2023-03-27T02:12:28.894Z,100026.78
2023-03-27T02:15:24.839Z,100033.88
2023-03-27T02:17:51.015Z,100045.38
2023-03-27T02:20:21.029Z,100045.59
2023-03-27T02:22:49.383Z,100076.13
2023-03-27T02:25:29.890Z,100069.31
2023-03-27T02:28:11.018Z,100085.06
2023-03-27T02:30:46.216Z,100086.84
2023-03-27T02:33:45.000Z,100092.94
2023-03-27T02:36:23.447Z,100090.22
2023-03-27T02:38:58.317Z,100099.72
2023-03-27T02:41:31.714Z,100088.34
2023-03-27T02:44:09.425Z,100121.44
2023-03-27T02:46:42.923Z,100111.75
2023-03-27T02:49:15.484Z,100097.78
2023-03-27T02:51:49.066Z,100092.69
2023-03-27T02:54:21.207Z,100106.94
2023-03-27T02:56:53.893Z,100114.88
2023-03-27T02:59:26.530Z,100118.44
2023-03-27T03:01:54.929Z,100129.06
2023-03-27T03:04:28.308Z,100119.50
2023-03-27T03:06:56.953Z,100090.66
2023-03-27T03:09:25.960Z,100088.94
2023-03-27T03:11:55.973Z,100072.44
2023-03-27T03:14:29.168Z,100039.53
2023-03-27T03:16:57.021Z,100055.25
2023-03-27T03:19:25.013Z,100048.28
2023-03-27T03:21:52.855Z,100015.19
2023-03-27T03:24:21.980Z,99993.50
2023-03-27T03:26:50.771Z,100002.34
2023-03-27T03:29:19.023Z,100002.41
2023-03-27T03:31:49.665Z,100008.63
2023-03-27T03:34:19.366Z,100003.59
2023-03-27T03:36:49.775Z,100019.34
2023-03-27T03:39:18.691Z,100010.84
2023-03-27T03:41:46.444Z,100033.56
2023-03-27T03:44:14.268Z,100036.31
2023-03-27T03:46:42.393Z,100041.59
2023-03-27T03:49:11.598Z,100059.09
2023-03-27T03:51:39.443Z,100026.06
2023-03-27T03:54:09.102Z,100054.06
2023-03-27T03:56:37.333Z,100034.91
2023-03-27T03:59:05.308Z,100047.19
2023-03-27T04:01:33.590Z,100048.06
2023-03-27T04:04:02.199Z,100032.44
2023-03-27T04:06:32.586Z,100045.59
2023-03-27T04:09:00.513Z,100040.44
2023-03-27T04:11:28.397Z,100039.59
2023-03-27T04:13:56.290Z,100059.69
2023-03-27T04:16:24.309Z,100059.75
2023-03-27T04:18:55.168Z,100072.94
2023-03-27T04:21:26.545Z,100076.44
2023-03-27T04:24:02.194Z,100068.69
2023-03-27T04:26:30.316Z,100070.59
2023-03-27T04:28:58.432Z,100098.56
2023-03-27T04:31:26.560Z,100082.81
2023-03-27T04:33:54.328Z,100072.41
2023-03-27T04:36:22.619Z,100069.03
2023-03-27T04:38:50.468Z,100071.72
2023-03-27T04:41:21.209Z,100103.16
2023-03-27T04:43:49.002Z,100118.84
2023-03-27T04:46:16.832Z,100132.78
2023-03-27T04:48:44.656Z,100110.19
2023-03-27T04:51:12.413Z,100114.59
2023-03-27T04:53:43.076Z,100135.66
2023-03-27T04:56:11.118Z,100142.69
2023-03-27T04:58:41.653Z,100147.97
2023-03-27T05:01:10.112Z,100163.72
2023-03-27T05:03:39.071Z,100168.16
2023-03-27T05:06:08.428Z,100208.31
2023-03-27T05:08:36.458Z,100199.59
2023-03-27T05:11:04.400Z,100210.94
2023-03-27T05:13:32.307Z,100210.03
2023-03-27T05:16:02.017Z,100204.69
2023-03-27T05:18:30.746Z,100243.06
2023-03-27T05:20:59.169Z,100250.84
2023-03-27T05:23:27.234Z,100251.59
2023-03-27T05:26:00.725Z,100278.31
2023-03-27T05:28:29.246Z,100301.44
2023-03-27T05:30:57.540Z,100287.84
2023-03-27T05:33:27.131Z,100294.25
2023-03-27T05:35:54.922Z,100237.84
2023-03-27T05:38:24.517Z,100197.13
2023-03-27T05:40:53.317Z,100169.81
2023-03-27T05:43:21.304Z,100113.81
2023-03-27T05:45:49.277Z,100126.75
2023-03-27T05:48:17.390Z,100100.50
2023-03-27T05:50:47.027Z,100130.19
2023-03-27T05:53:15.657Z,100189.84
2023-03-27T05:55:43.487Z,100198.16
2023-03-27T05:58:13.371Z,100126.44
2023-03-27T06:00:43.090Z,100133.44
2023-03-27T06:03:13.518Z,100005.69
2023-03-27T06:05:42.116Z,99924.94
2023-03-27T06:08:11.751Z,99956.28
2023-03-27T06:10:43.250Z,99999.56
2023-03-27T06:13:13.618Z,100065.13
2023-03-27T06:15:43.373Z,100109.78
2023-03-27T06:18:11.877Z,100106.47
2023-03-27T06:20:40.094Z,100156.28
2023-03-27T06:23:09.367Z,100168.38
2023-03-27T06:25:40.054Z,100189.31
2023-03-27T06:28:09.722Z,100190.25
2023-03-27T06:30:38.735Z,100319.84
2023-03-27T06:33:08.020Z,100318.50
2023-03-27T06:35:36.976Z,100134.56
2023-03-27T06:38:04.776Z,100225.78
2023-03-27T06:40:35.573Z,100374.53
2023-03-27T06:43:07.282Z,100209.81
2023-03-27T06:45:38.151Z,100125.44
2023-03-27T06:48:15.088Z,99878.31
2023-03-27T06:50:49.180Z,99622.41
2023-03-27T06:55:49.283Z,99775.25
2023-03-27T06:58:20.500Z,99700.00
2023-03-27T07:00:50.455Z,99762.41
2023-03-27T07:03:20.104Z,99428.69
2023-03-27T07:05:49.055Z,99386.44
2023-03-27T07:08:23.367Z,99288.06
2023-03-27T07:11:03.884Z,99372.81
2023-03-27T07:13:41.476Z,99554.88
2023-03-27T07:16:11.405Z,99790.22
2023-03-27T07:18:39.162Z,99716.31
2023-03-27T07:21:08.257Z,99675.16
2023-03-27T07:23:36.139Z,99618.59
2023-03-27T07:26:04.115Z,99590.44
2023-03-27T07:28:32.907Z,99837.59
2023-03-27T07:31:16.516Z,100043.19
2023-03-27T07:33:53.766Z,99968.59
2023-03-27T08:16:40.229Z,99411.09
2023-03-27T08:24:52.938Z,99376.00
2023-03-27T08:27:20.915Z,99546.78
2023-03-27T08:29:49.265Z,99606.00
2023-03-27T08:32:17.167Z,99611.13
2023-03-27T08:34:45.765Z,99567.34
2023-03-27T08:37:15.048Z,99633.34
2023-03-27T08:39:42.847Z,99526.72
2023-03-27T08:42:19.048Z,99638.19
2023-03-27T08:44:48.315Z,99630.59
2023-03-27T08:47:20.685Z,99567.41
2023-03-27T08:49:53.760Z,99610.44
2023-03-27T08:52:25.868Z,99600.28
2023-03-27T08:54:58.543Z,99601.72
2023-03-27T08:57:28.253Z,99583.00
2023-03-27T09:00:00.312Z,99416.13
2023-03-27T09:02:37.390Z,99432.50
2023-03-27T09:05:11.265Z,99345.72
2023-03-27T09:07:48.090Z,99216.34
2023-03-27T09:10:25.073Z,99194.06
2023-03-27T09:13:04.260Z,99071.94
2023-03-27T09:15:38.100Z,99163.16
2023-03-27T09:18:11.940Z,99145.88
2023-03-27T09:20:43.839Z,99114.81
2023-03-27T09:23:20.538Z,98966.84
2023-03-27T09:25:53.599Z,98896.03
2023-03-27T09:28:23.566Z,99151.00
2023-03-27T09:30:52.736Z,99242.84
2023-03-27T09:33:20.620Z,99338.00
2023-03-27T09:35:48.659Z,99360.34
2023-03-27T09:38:33.229Z,99294.72
2023-03-27T09:41:04.324Z,99374.31
2023-03-27T09:43:42.515Z,99270.19
2023-03-27T09:46:12.037Z,99170.00
2023-03-27T09:48:50.299Z,99139.66
2023-03-27T09:51:38.849Z,99134.09
2023-03-27T09:54:08.931Z,98957.13
2023-03-27T09:56:39.379Z,98918.75
2023-03-27T09:59:21.747Z,99071.47
2023-03-27T10:01:51.305Z,98965.81
2023-03-27T10:04:21.846Z,100702.56
2023-03-27T10:06:57.672Z,100495.97
2023-03-27T10:09:29.304Z,100752.31
2023-03-27T10:12:10.529Z,100604.94
2023-03-27T10:14:41.973Z,100511.34
2023-03-27T10:17:22.728Z,99050.31
2023-03-27T10:19:54.968Z,98438.81
2023-03-27T10:22:29.542Z,98410.41
2023-03-27T10:25:04.742Z,98449.81
2023-03-27T10:27:35.878Z,98559.47
2023-03-27T10:30:04.406Z,98836.28
2023-03-27T10:32:45.387Z,98663.75
2023-03-27T10:35:24.044Z,98593.63
2023-03-27T10:37:52.827Z,98778.72
2023-03-27T10:40:25.658Z,98462.09
2023-03-27T10:42:57.307Z,98656.41
2023-03-27T10:45:25.571Z,98386.97
2023-03-27T10:47:56.857Z,98629.09
2023-03-27T10:50:30.280Z,98804.63
2023-03-27T10:53:07.346Z,98779.44
2023-03-27T10:55:51.868Z,98637.09
2023-03-27T10:58:28.466Z,98767.16
2023-03-27T11:01:02.818Z,98872.03
2023-03-27T11:03:38.650Z,98947.72
2023-03-27T11:06:13.288Z,98972.44
2023-03-27T11:08:52.939Z,98866.19
2023-03-27T11:11:27.263Z,99016.47
2023-03-27T11:13:59.479Z,99055.78
2023-03-27T11:16:32.956Z,99072.31
2023-03-27T11:19:13.907Z,99028.81
2023-03-27T11:21:45.959Z,99039.06
2023-03-27T11:24:21.316Z,98940.16
2023-03-27T11:26:57.322Z,98943.75
2023-03-27T11:29:29.416Z,99058.59
2023-03-27T11:32:06.069Z,99099.94
2023-03-27T11:34:39.139Z,98870.38
2023-03-27T11:37:17.943Z,99144.22
2023-03-27T11:39:50.685Z,98950.72
2023-03-27T11:42:24.045Z,98953.13
2023-03-27T11:44:52.515Z,98720.88
2023-03-27T11:47:43.575Z,98962.97
2023-03-27T11:50:41.216Z,99072.72
2023-03-27T11:53:42.111Z,98908.63
2023-03-27T11:56:25.522Z,98618.66
2023-03-27T11:59:11.080Z,98942.75
2023-03-27T12:01:46.424Z,99036.69
2023-03-27T12:04:41.636Z,99307.25
2023-03-27T12:07:33.964Z,99144.81
2023-03-27T12:10:27.421Z,99152.88
2023-03-27T12:13:28.714Z,99147.63
2023-03-27T12:16:16.976Z,99058.75
2023-03-27T12:19:03.783Z,99081.44
2023-03-27T12:21:54.209Z,98890.56
2023-03-27T12:24:53.452Z,98760.41
2023-03-27T12:27:42.183Z,98840.34
2023-03-27T12:30:33.339Z,99020.78
2023-03-27T12:33:17.649Z,99027.81
2023-03-27T12:35:49.456Z,99032.41
2023-03-27T12:38:24.632Z,99228.56
2023-03-27T12:41:03.912Z,99234.94
2023-03-27T12:43:39.631Z,99258.47
2023-03-27T12:46:10.896Z,99428.50
2023-03-27T12:48:51.929Z,99540.69
2023-03-27T12:51:20.421Z,99624.09
2023-03-27T12:53:51.781Z,99659.47
2023-03-27T12:56:27.352Z,99612.84
2023-03-27T12:58:57.608Z,99621.59
2023-03-27T13:01:51.859Z,99617.03
2023-03-27T13:04:52.935Z,99593.13
2023-03-27T13:07:27.610Z,99579.91
2023-03-27T13:10:14.665Z,99454.63
2023-03-27T13:13:09.223Z,99537.59
2023-03-27T13:15:56.682Z,99583.13
2023-03-27T13:18:37.050Z,99684.66
2023-03-27T13:21:19.157Z,99902.47
2023-03-27T13:24:17.082Z,99896.19
2023-03-27T13:26:59.667Z,99818.88
2023-03-27T13:29:32.973Z,99874.03
2023-03-27T13:32:03.848Z,99775.56
2023-03-27T13:34:38.116Z,99750.94
2023-03-27T13:37:43.061Z,99810.28
2023-03-27T13:40:24.672Z,99826.00
2023-03-27T13:42:57.618Z,99725.81
2023-03-27T13:45:30.115Z,99746.78
2023-03-27T13:48:34.378Z,99674.03
2023-03-27T13:51:24.172Z,99617.75
2023-03-27T13:54:04.116Z,99670.22
2023-03-27T13:56:54.968Z,99697.88
2023-03-27T13:59:54.659Z,99546.06
2023-03-27T14:02:55.434Z,99486.72
2023-03-27T14:05:36.891Z,99229.66
2023-03-27T14:08:32.478Z,99298.59
2023-03-27T14:11:16.472Z,99304.41
2023-03-27T14:14:04.352Z,99391.28
2023-03-27T14:16:56.756Z,99437.41
2023-03-27T14:20:02.094Z,99270.50
2023-03-27T14:22:37.891Z,99357.28
2023-03-27T14:25:11.116Z,99148.69
2023-03-27T14:27:42.200Z,99102.75
2023-03-27T14:30:17.397Z,99103.47
2023-03-27T14:32:46.969Z,98997.84
2023-03-27T14:35:28.063Z,99118.22
2023-03-27T14:38:00.045Z,99223.25
2023-03-27T14:40:31.716Z,99167.19
2023-03-27T14:43:01.690Z,99089.75
2023-03-27T14:45:33.879Z,99005.78
2023-03-27T14:48:05.012Z,99071.38
2023-03-27T14:50:34.494Z,99026.72
2023-03-27T14:53:08.779Z,99099.13
2023-03-27T14:55:40.013Z,98988.63
2023-03-27T14:58:14.342Z,99197.47
2023-03-27T15:00:44.091Z,99208.41
2023-03-27T15:03:16.400Z,99053.66
2023-03-27T15:05:57.272Z,99051.59
2023-03-27T15:08:28.660Z,98965.69
2023-03-27T15:10:56.653Z,99014.97
2023-03-27T15:13:28.177Z,99050.44
2023-03-27T15:15:59.311Z,98994.69
2023-03-27T15:18:32.958Z,99016.50
2023-03-27T15:21:04.635Z,99000.69
2023-03-27T15:23:42.879Z,99068.63
2023-03-27T15:26:19.159Z,98960.22
2023-03-27T15:28:53.676Z,98971.41
2023-03-27T15:31:25.660Z,99036.06
2023-03-27T15:34:02.191Z,99008.63
2023-03-27T15:36:33.072Z,99247.22
2023-03-27T15:39:02.612Z,99478.25
2023-03-27T15:41:43.895Z,99571.75
2023-03-27T15:44:18.974Z,99714.06
2023-03-27T15:46:57.994Z,99823.44
2023-03-27T15:49:29.629Z,99926.19
2023-03-27T15:51:58.798Z,100028.00
2023-03-27T15:54:32.986Z,100112.78
2023-03-27T15:57:09.122Z,100096.84
2023-03-27T15:59:52.643Z,100103.16
2023-03-27T16:02:25.980Z,100136.88
2023-03-27T16:04:57.056Z,100057.66
2023-03-27T16:07:30.136Z,100030.19
2023-03-27T16:10:02.276Z,99944.50
2023-03-27T16:12:34.796Z,99882.72
2023-03-27T16:15:08.310Z,99840.75
2023-03-27T16:17:45.900Z,99850.44
2023-03-27T16:20:35.694Z,99720.09
2023-03-27T16:23:04.375Z,99759.69
2023-03-27T16:25:32.227Z,99738.91
2023-03-27T16:28:00.123Z,99733.97
2023-03-27T16:30:32.026Z,99806.94
2023-03-27T16:33:01.640Z,99803.16
2023-03-27T16:35:31.111Z,99862.25
2023-03-27T16:37:59.839Z,99899.31
2023-03-27T16:40:27.620Z,99918.00
2023-03-27T16:42:55.568Z,99914.72
2023-03-27T16:45:23.447Z,99964.00
2023-03-27T16:47:53.373Z,100012.47
2023-03-27T16:50:26.734Z,100037.91
2023-03-27T16:52:54.711Z,100056.34
2023-03-27T16:55:22.864Z,100067.91
2023-03-27T16:57:52.357Z,100089.91
2023-03-27T17:00:21.279Z,100100.59
2023-03-27T17:02:49.137Z,100119.91
2023-03-27T17:05:16.971Z,100151.75
2023-03-27T17:07:47.007Z,100167.47
2023-03-27T17:10:14.917Z,100162.31
2023-03-27T17:13:10.459Z,100167.00
2023-03-27T17:15:38.826Z,100197.97
2023-03-27T17:18:07.592Z,100248.19
2023-03-27T17:20:35.846Z,100262.44
2023-03-27T17:23:04.979Z,100277.59
2023-03-27T17:25:32.894Z,100281.34
2023-03-27T17:28:00.734Z,100295.81
2023-03-27T17:30:38.469Z,100325.88
2023-03-27T17:33:09.084Z,100332.34
2023-03-27T17:35:39.654Z,100351.91
2023-03-27T17:38:10.220Z,100360.94
2023-03-27T17:40:41.153Z,100379.53
2023-03-27T17:43:08.983Z,100398.88
2023-03-27T17:45:40.811Z,100416.63
2023-03-27T17:48:08.949Z,100451.66
2023-03-27T17:50:36.719Z,100461.25
2023-03-27T17:53:04.782Z,100448.16
2023-03-27T17:55:33.955Z,100473.53
2023-03-27T17:58:08.378Z,100472.59
2023-03-27T18:00:37.454Z,100427.03
2023-03-27T18:03:06.369Z,100415.66
2023-03-27T18:05:37.424Z,100368.25
2023-03-27T18:08:05.952Z,100300.50
2023-03-27T18:10:35.667Z,100207.34
2023-03-27T18:13:03.673Z,100172.03
2023-03-27T18:15:31.480Z,100134.22
2023-03-27T18:17:59.251Z,100114.88
2023-03-27T18:20:27.172Z,100133.59
2023-03-27T18:22:55.056Z,100216.56
2023-03-27T18:25:22.996Z,100288.94
2023-03-27T18:27:52.293Z,100352.38
2023-03-27T18:30:20.319Z,100378.91
2023-03-27T18:32:49.325Z,100386.19
2023-03-27T18:35:19.756Z,100396.91
2023-03-27T18:37:48.070Z,100425.94
2023-03-27T18:40:18.289Z,100429.66
2023-03-27T18:42:46.550Z,100449.03
2023-03-27T18:45:17.701Z,100476.41
2023-03-27T18:47:46.085Z,100470.25
2023-03-27T18:50:15.588Z,100470.34
2023-03-27T18:52:44.086Z,100487.94
2023-03-27T18:55:13.003Z,100504.59
2023-03-27T18:57:40.769Z,100529.13
2023-03-27T19:00:09.923Z,100544.91
2023-03-27T19:02:39.270Z,100567.63
2023-03-27T19:05:08.567Z,100545.78
2023-03-27T19:07:37.424Z,100564.22
2023-03-27T19:10:12.884Z,100588.69
2023-03-27T19:12:40.823Z,100584.34
2023-03-27T19:15:19.454Z,100587.00
2023-03-27T19:17:49.685Z,100561.75
2023-03-27T19:20:17.563Z,100577.59
2023-03-27T19:22:45.385Z,100603.06
2023-03-27T19:25:13.381Z,100596.13
2023-03-27T19:27:41.323Z,100597.97
2023-03-27T19:30:11.192Z,100597.25
2023-03-27T19:32:39.175Z,100662.03
2023-03-27T19:35:12.266Z,100665.47
2023-03-27T19:37:40.582Z,100662.97
2023-03-27T19:40:10.492Z,100690.09
2023-03-27T19:42:38.312Z,100716.34
2023-03-27T19:45:06.970Z,100717.16
2023-03-27T19:47:34.933Z,100731.06
2023-03-27T19:50:02.785Z,100708.28
2023-03-27T19:52:32.464Z,100710.16
2023-03-27T19:55:00.279Z,100694.50
2023-03-27T19:57:28.231Z,100683.38
2023-03-27T19:59:56.119Z,100697.59
2023-03-27T20:02:23.967Z,100718.72
2023-03-27T20:04:51.846Z,100736.44
2023-03-27T20:07:19.548Z,100775.03
2023-03-27T20:09:48.816Z,100773.41
2023-03-27T20:12:18.265Z,100783.19
2023-03-27T20:14:58.170Z,100796.31
2023-03-27T20:17:34.629Z,100820.88
2023-03-27T20:20:02.580Z,100815.59
2023-03-27T20:22:31.034Z,100825.28
2023-03-27T20:25:00.614Z,100840.03
2023-03-27T20:27:28.399Z,100827.66
2023-03-27T20:29:56.279Z,100810.91
2023-03-27T20:32:24.124Z,100793.19
2023-03-27T20:34:52.293Z,100784.34
2023-03-27T20:37:20.517Z,100774.59
2023-03-27T20:39:48.327Z,100755.97
2023-03-27T20:42:23.026Z,100731.25
2023-03-27T20:44:55.177Z,100703.09
2023-03-27T20:47:23.645Z,100704.72
2023-03-27T20:49:51.711Z,100689.91
2023-03-27T20:52:22.746Z,100689.06
2023-03-27T20:54:50.847Z,100666.50
2023-03-27T20:57:21.702Z,100696.47
2023-03-27T20:59:49.627Z,100720.28
2023-03-27T21:02:19.486Z,100747.66
2023-03-27T21:04:47.789Z,100752.19
2023-03-27T21:07:16.846Z,100796.25
2023-03-27T21:09:44.692Z,100801.69
2023-03-27T21:12:12.857Z,100833.34
2023-03-27T21:14:42.107Z,100849.22
2023-03-27T21:17:09.862Z,100857.31
2023-03-27T21:19:37.649Z,100861.75
2023-03-27T21:22:05.400Z,100868.00
2023-03-27T21:24:33.177Z,100879.44
2023-03-27T21:27:01.171Z,100897.91
2023-03-27T21:29:28.950Z,100903.22
2023-03-27T21:31:58.217Z,100905.84
2023-03-27T21:34:26.136Z,100913.75
2023-03-27T21:36:53.984Z,100928.63
2023-03-27T21:39:21.876Z,100923.44
2023-03-27T21:41:49.608Z,100932.16
2023-03-27T21:44:17.337Z,100924.34
2023-03-27T21:46:45.164Z,100943.56
2023-03-27T21:49:14.394Z,100960.19
2023-03-27T21:51:42.225Z,100966.31
2023-03-27T21:54:10.097Z,100983.75
2023-03-27T21:56:37.984Z,100967.09
2023-03-27T21:59:05.874Z,100975.78
2023-03-27T22:01:33.843Z,100953.88
2023-03-27T22:04:02.324Z,100966.06
2023-03-27T22:06:31.838Z,100952.00
2023-03-27T22:08:59.612Z,100937.13
2023-03-27T22:11:27.534Z,100949.38
2023-03-27T22:13:55.267Z,100946.69
2023-03-27T22:16:23.404Z,100951.00
2023-03-27T22:18:51.302Z,100951.84
2023-03-27T22:21:22.089Z,100952.69
2023-03-27T22:23:52.503Z,100930.78
2023-03-27T22:26:21.476Z,100960.53
2023-03-27T22:28:49.403Z,100943.00
2023-03-27T22:31:17.276Z,100948.22
2023-03-27T22:33:45.514Z,100926.38
2023-03-27T22:36:13.987Z,100912.34
2023-03-27T22:38:42.949Z,100922.84
2023-03-27T22:41:14.084Z,100934.19
2023-03-27T22:43:42.300Z,100906.13
2023-03-27T22:46:12.716Z,100906.06
2023-03-27T22:48:40.797Z,100889.41
2023-03-27T22:51:09.649Z,100876.34
2023-03-27T22:53:37.943Z,100873.72
2023-03-27T22:56:07.456Z,100851.84
2023-03-27T22:58:36.920Z,100882.44
2023-03-27T23:01:06.002Z,100882.38
2023-03-27T23:03:34.284Z,100863.00
2023-03-27T23:06:02.517Z,100859.50
2023-03-27T23:08:30.737Z,100822.63
2023-03-27T23:11:00.347Z,100804.22
2023-03-27T23:13:30.043Z,100797.22
2023-03-27T23:16:00.265Z,100788.41
2023-03-27T23:18:28.306Z,100768.31
2023-03-27T23:20:57.005Z,100791.91
2023-03-27T23:23:26.387Z,100783.09
2023-03-27T23:25:54.586Z,100754.25
2023-03-27T23:28:23.115Z,100765.66
2023-03-27T23:30:54.649Z,100797.22
2023-03-27T23:33:25.046Z,100783.16
2023-03-27T23:35:53.919Z,100814.75
2023-03-27T23:38:21.863Z,100778.84
2023-03-27T23:40:55.713Z,100758.34
2023-03-27T23:43:23.770Z,100792.81
2023-03-27T23:45:51.752Z,100829.91
2023-03-27T23:48:19.676Z,100911.38
2023-03-27T23:50:49.555Z,100997.25
2023-03-27T23:53:17.313Z,101023.59
2023-03-27T23:55:45.739Z,101043.84
2023-03-27T23:58:13.489Z,101081.53
